sensor_id;sensor_type;location;lat;lon;timestamp;temperature;humidity
24148;DHT22;12309;51.450;-2.624;2023-02-15T00:01:16;6.30;99.90
24148;DHT22;12309;51.450;-2.624;2023-02-15T00:03:42;6.30;99.90
24148;DHT22;12309;51.450;-2.624;2023-02-15T00:06:08;6.20;99.90
24148;DHT22;12309;51.450;-2.624;2023-02-15T00:08:33;6.20;99.90
24148;DHT22;12309;51.450;-2.624;2023-02-15T00:11:10;6.40;99.90
24148;DHT22;12309;51.450;-2.624;2023-02-15T00:13:37;6.70;99.90
24148;DHT22;12309;51.450;-2.624;2023-02-15T00:16:06;6.10;99.90
24148;DHT22;12309;51.450;-2.624;2023-02-15T00:18:32;6.20;99.90
24148;DHT22;12309;51.450;-2.624;2023-02-15T00:21:02;6.20;99.90
24148;DHT22;12309;51.450;-2.624;2023-02-15T00:23:28;6.20;99.90
24148;DHT22;12309;51.450;-2.624;2023-02-15T00:26:06;6.10;99.90
24148;DHT22;12309;51.450;-2.624;2023-02-15T00:28:31;6.20;99.90
24148;DHT22;12309;51.450;-2.624;2023-02-15T00:31:15;6.10;99.90
24148;DHT22;12309;51.450;-2.624;2023-02-15T00:33:40;6.00;99.90
24148;DHT22;12309;51.450;-2.624;2023-02-15T00:36:08;6.10;99.90
24148;DHT22;12309;51.450;-2.624;2023-02-15T00:41:03;6.30;99.90
24148;DHT22;12309;51.450;-2.624;2023-02-15T00:43:30;6.10;99.90
24148;DHT22;12309;51.450;-2.624;2023-02-15T00:45:56;6.00;99.90
24148;DHT22;12309;51.450;-2.624;2023-02-15T00:48:21;5.90;99.90
24148;DHT22;12309;51.450;-2.624;2023-02-15T00:50:52;5.90;99.90
24148;DHT22;12309;51.450;-2.624;2023-02-15T00:53:18;6.10;99.90
24148;DHT22;12309;51.450;-2.624;2023-02-15T00:55:44;5.80;99.90
24148;DHT22;12309;51.450;-2.624;2023-02-15T00:58:10;5.80;99.90
24148;DHT22;12309;51.450;-2.624;2023-02-15T01:00:36;5.80;99.90
24148;DHT22;12309;51.450;-2.624;2023-02-15T01:03:02;5.80;99.90
24148;DHT22;12309;51.450;-2.624;2023-02-15T01:05:28;5.80;99.90
24148;DHT22;12309;51.450;-2.624;2023-02-15T01:07:55;5.90;99.90
24148;DHT22;12309;51.450;-2.624;2023-02-15T01:10:21;6.10;99.90
24148;DHT22;12309;51.450;-2.624;2023-02-15T01:12:47;6.20;99.90
24148;DHT22;12309;51.450;-2.624;2023-02-15T01:15:12;6.30;99.90
24148;DHT22;12309;51.450;-2.624;2023-02-15T01:17:38;6.40;99.90
24148;DHT22;12309;51.450;-2.624;2023-02-15T01:20:05;6.50;99.90
24148;DHT22;12309;51.450;-2.624;2023-02-15T01:22:30;6.50;99.90
24148;DHT22;12309;51.450;-2.624;2023-02-15T01:24:56;6.50;99.90
24148;DHT22;12309;51.450;-2.624;2023-02-15T01:27:21;6.50;99.90
24148;DHT22;12309;51.450;-2.624;2023-02-15T01:29:47;6.40;99.90
24148;DHT22;12309;51.450;-2.624;2023-02-15T01:32:13;6.40;99.90
24148;DHT22;12309;51.450;-2.624;2023-02-15T01:34:39;6.30;99.90
24148;DHT22;12309;51.450;-2.624;2023-02-15T01:37:04;6.30;99.90
24148;DHT22;12309;51.450;-2.624;2023-02-15T01:39:30;6.10;99.90
24148;DHT22;12309;51.450;-2.624;2023-02-15T01:41:55;6.10;99.90
24148;DHT22;12309;51.450;-2.624;2023-02-15T01:44:45;6.10;99.90
24148;DHT22;12309;51.450;-2.624;2023-02-15T01:47:14;6.00;99.90
24148;DHT22;12309;51.450;-2.624;2023-02-15T01:49:42;6.00;99.90
24148;DHT22;12309;51.450;-2.624;2023-02-15T01:52:10;6.00;99.90
24148;DHT22;12309;51.450;-2.624;2023-02-15T01:54:38;6.00;99.90
24148;DHT22;12309;51.450;-2.624;2023-02-15T01:57:12;6.10;99.90
24148;DHT22;12309;51.450;-2.624;2023-02-15T01:59:41;6.10;99.90
24148;DHT22;12309;51.450;-2.624;2023-02-15T02:02:09;6.10;99.90
24148;DHT22;12309;51.450;-2.624;2023-02-15T02:04:45;6.10;99.90
24148;DHT22;12309;51.450;-2.624;2023-02-15T02:07:14;6.10;99.90
24148;DHT22;12309;51.450;-2.624;2023-02-15T02:09:41;6.10;99.90
24148;DHT22;12309;51.450;-2.624;2023-02-15T02:12:08;6.20;99.90
24148;DHT22;12309;51.450;-2.624;2023-02-15T02:14:35;6.20;99.90
24148;DHT22;12309;51.450;-2.624;2023-02-15T02:17:07;6.10;99.90
24148;DHT22;12309;51.450;-2.624;2023-02-15T02:20:07;6.00;99.90
24148;DHT22;12309;51.450;-2.624;2023-02-15T02:25:59;6.00;99.90
24148;DHT22;12309;51.450;-2.624;2023-02-15T02:28:58;6.00;99.90
24148;DHT22;12309;51.450;-2.624;2023-02-15T02:34:27;6.00;99.90
24148;DHT22;12309;51.450;-2.624;2023-02-15T02:37:12;6.00;99.90
24148;DHT22;12309;51.450;-2.624;2023-02-15T02:45:15;6.00;99.90
24148;DHT22;12309;51.450;-2.624;2023-02-15T02:48:03;6.10;99.90
24148;DHT22;12309;51.450;-2.624;2023-02-15T02:50:31;6.00;99.90
24148;DHT22;12309;51.450;-2.624;2023-02-15T02:52:58;6.00;99.90
24148;DHT22;12309;51.450;-2.624;2023-02-15T02:55:33;5.90;99.90
24148;DHT22;12309;51.450;-2.624;2023-02-15T02:58:10;5.90;99.90
24148;DHT22;12309;51.450;-2.624;2023-02-15T03:00:43;5.90;99.90
24148;DHT22;12309;51.450;-2.624;2023-02-15T03:03:20;6.00;99.90
24148;DHT22;12309;51.450;-2.624;2023-02-15T03:05:47;6.00;99.90
24148;DHT22;12309;51.450;-2.624;2023-02-15T03:08:16;6.10;99.90
24148;DHT22;12309;51.450;-2.624;2023-02-15T03:10:51;6.00;99.90
24148;DHT22;12309;51.450;-2.624;2023-02-15T03:13:18;6.00;99.90
24148;DHT22;12309;51.450;-2.624;2023-02-15T03:15:45;6.00;99.90
24148;DHT22;12309;51.450;-2.624;2023-02-15T03:18:45;6.00;99.90
24148;DHT22;12309;51.450;-2.624;2023-02-15T03:21:23;6.00;99.90
24148;DHT22;12309;51.450;-2.624;2023-02-15T03:23:59;6.40;99.90
24148;DHT22;12309;51.450;-2.624;2023-02-15T03:26:27;6.20;99.90
24148;DHT22;12309;51.450;-2.624;2023-02-15T03:28:55;6.10;99.90
24148;DHT22;12309;51.450;-2.624;2023-02-15T03:31:24;6.10;99.90
24148;DHT22;12309;51.450;-2.624;2023-02-15T03:34:02;6.10;99.90
24148;DHT22;12309;51.450;-2.624;2023-02-15T03:36:50;6.10;99.90
24148;DHT22;12309;51.450;-2.624;2023-02-15T03:41:58;6.20;99.90
24148;DHT22;12309;51.450;-2.624;2023-02-15T03:47:06;6.00;99.90
24148;DHT22;12309;51.450;-2.624;2023-02-15T03:49:44;6.10;99.90
24148;DHT22;12309;51.450;-2.624;2023-02-15T03:52:13;6.10;99.90
24148;DHT22;12309;51.450;-2.624;2023-02-15T03:54:41;6.00;99.90
24148;DHT22;12309;51.450;-2.624;2023-02-15T03:57:21;6.00;99.90
24148;DHT22;12309;51.450;-2.624;2023-02-15T04:00:22;6.00;99.90
24148;DHT22;12309;51.450;-2.624;2023-02-15T04:05:43;5.80;99.90
24148;DHT22;12309;51.450;-2.624;2023-02-15T04:08:09;5.80;99.90
24148;DHT22;12309;51.450;-2.624;2023-02-15T04:10:35;5.90;99.90
24148;DHT22;12309;51.450;-2.624;2023-02-15T04:13:22;5.90;99.90
24148;DHT22;12309;51.450;-2.624;2023-02-15T04:15:48;5.90;99.90
24148;DHT22;12309;51.450;-2.624;2023-02-15T04:18:33;6.00;99.90
24148;DHT22;12309;51.450;-2.624;2023-02-15T04:21:19;5.70;99.90
24148;DHT22;12309;51.450;-2.624;2023-02-15T04:24:07;5.70;99.90
24148;DHT22;12309;51.450;-2.624;2023-02-15T04:26:51;5.60;99.90
24148;DHT22;12309;51.450;-2.624;2023-02-15T04:29:21;5.80;99.90
24148;DHT22;12309;51.450;-2.624;2023-02-15T04:31:47;5.90;99.90
24148;DHT22;12309;51.450;-2.624;2023-02-15T04:39:05;5.70;99.90
24148;DHT22;12309;51.450;-2.624;2023-02-15T04:41:31;5.60;99.90
24148;DHT22;12309;51.450;-2.624;2023-02-15T04:43:57;5.60;99.90
24148;DHT22;12309;51.450;-2.624;2023-02-15T04:46:23;5.60;99.90
24148;DHT22;12309;51.450;-2.624;2023-02-15T04:48:48;5.50;99.90
24148;DHT22;12309;51.450;-2.624;2023-02-15T04:51:14;5.50;99.90
24148;DHT22;12309;51.450;-2.624;2023-02-15T04:53:39;5.40;99.90
24148;DHT22;12309;51.450;-2.624;2023-02-15T04:56:05;5.20;99.90
24148;DHT22;12309;51.450;-2.624;2023-02-15T04:58:31;5.30;99.90
24148;DHT22;12309;51.450;-2.624;2023-02-15T05:00:57;5.50;99.90
24148;DHT22;12309;51.450;-2.624;2023-02-15T05:03:23;5.20;99.90
24148;DHT22;12309;51.450;-2.624;2023-02-15T05:05:49;5.20;99.90
24148;DHT22;12309;51.450;-2.624;2023-02-15T05:08:15;5.20;99.90
24148;DHT22;12309;51.450;-2.624;2023-02-15T05:13:08;5.30;99.90
24148;DHT22;12309;51.450;-2.624;2023-02-15T05:15:33;5.20;99.90
24148;DHT22;12309;51.450;-2.624;2023-02-15T05:17:59;5.10;99.90
24148;DHT22;12309;51.450;-2.624;2023-02-15T05:20:24;5.10;99.90
24148;DHT22;12309;51.450;-2.624;2023-02-15T05:22:54;5.00;99.90
24148;DHT22;12309;51.450;-2.624;2023-02-15T05:25:20;4.90;99.90
24148;DHT22;12309;51.450;-2.624;2023-02-15T05:28:15;4.90;99.90
24148;DHT22;12309;51.450;-2.624;2023-02-15T05:30:50;4.90;99.90
24148;DHT22;12309;51.450;-2.624;2023-02-15T05:33:17;4.90;99.90
24148;DHT22;12309;51.450;-2.624;2023-02-15T05:35:43;4.90;99.90
24148;DHT22;12309;51.450;-2.624;2023-02-15T05:38:08;4.80;99.90
24148;DHT22;12309;51.450;-2.624;2023-02-15T05:40:40;4.80;99.90
24148;DHT22;12309;51.450;-2.624;2023-02-15T05:43:06;4.70;99.90
24148;DHT22;12309;51.450;-2.624;2023-02-15T05:45:31;4.80;99.90
24148;DHT22;12309;51.450;-2.624;2023-02-15T05:47:57;4.70;99.90
24148;DHT22;12309;51.450;-2.624;2023-02-15T05:50:24;4.80;99.90
24148;DHT22;12309;51.450;-2.624;2023-02-15T05:53:22;4.20;99.90
24148;DHT22;12309;51.450;-2.624;2023-02-15T05:55:48;4.60;99.90
24148;DHT22;12309;51.450;-2.624;2023-02-15T05:58:13;4.70;99.90
24148;DHT22;12309;51.450;-2.624;2023-02-15T06:00:39;4.70;99.90
24148;DHT22;12309;51.450;-2.624;2023-02-15T06:03:04;4.80;99.90
24148;DHT22;12309;51.450;-2.624;2023-02-15T06:05:30;4.50;99.90
24148;DHT22;12309;51.450;-2.624;2023-02-15T06:07:56;4.70;99.90
24148;DHT22;12309;51.450;-2.624;2023-02-15T06:10:21;4.70;99.90
24148;DHT22;12309;51.450;-2.624;2023-02-15T06:12:47;4.70;99.90
24148;DHT22;12309;51.450;-2.624;2023-02-15T06:15:12;4.70;99.90
24148;DHT22;12309;51.450;-2.624;2023-02-15T06:17:41;4.70;99.90
24148;DHT22;12309;51.450;-2.624;2023-02-15T06:20:08;4.80;99.90
24148;DHT22;12309;51.450;-2.624;2023-02-15T06:22:34;4.80;99.90
24148;DHT22;12309;51.450;-2.624;2023-02-15T06:24:59;4.90;99.90
24148;DHT22;12309;51.450;-2.624;2023-02-15T06:27:25;4.60;99.90
24148;DHT22;12309;51.450;-2.624;2023-02-15T06:29:51;4.90;99.90
24148;DHT22;12309;51.450;-2.624;2023-02-15T06:32:16;5.00;99.90
24148;DHT22;12309;51.450;-2.624;2023-02-15T06:34:42;4.80;99.90
24148;DHT22;12309;51.450;-2.624;2023-02-15T06:37:08;4.70;99.90
24148;DHT22;12309;51.450;-2.624;2023-02-15T06:39:34;4.60;99.90
24148;DHT22;12309;51.450;-2.624;2023-02-15T06:41:59;4.80;99.90
24148;DHT22;12309;51.450;-2.624;2023-02-15T06:44:25;4.70;99.90
24148;DHT22;12309;51.450;-2.624;2023-02-15T06:46:51;4.60;99.90
24148;DHT22;12309;51.450;-2.624;2023-02-15T06:49:16;4.70;99.90
24148;DHT22;12309;51.450;-2.624;2023-02-15T06:51:42;4.80;99.90
24148;DHT22;12309;51.450;-2.624;2023-02-15T06:54:08;4.70;99.90
24148;DHT22;12309;51.450;-2.624;2023-02-15T06:56:33;5.40;99.90
24148;DHT22;12309;51.450;-2.624;2023-02-15T06:58:59;4.70;99.90
24148;DHT22;12309;51.450;-2.624;2023-02-15T07:01:24;4.70;99.90
24148;DHT22;12309;51.450;-2.624;2023-02-15T07:03:50;4.70;99.90
24148;DHT22;12309;51.450;-2.624;2023-02-15T07:06:16;4.70;99.90
24148;DHT22;12309;51.450;-2.624;2023-02-15T07:08:41;4.10;99.90
24148;DHT22;12309;51.450;-2.624;2023-02-15T07:11:07;4.90;99.90
24148;DHT22;12309;51.450;-2.624;2023-02-15T07:13:51;4.90;99.90
24148;DHT22;12309;51.450;-2.624;2023-02-15T07:16:18;5.00;99.90
24148;DHT22;12309;51.450;-2.624;2023-02-15T07:18:44;5.00;99.90
24148;DHT22;12309;51.450;-2.624;2023-02-15T07:21:10;4.90;99.90
24148;DHT22;12309;51.450;-2.624;2023-02-15T07:23:36;4.80;99.90
24148;DHT22;12309;51.450;-2.624;2023-02-15T07:26:03;4.80;99.90
24148;DHT22;12309;51.450;-2.624;2023-02-15T07:28:29;4.70;99.90
24148;DHT22;12309;51.450;-2.624;2023-02-15T07:30:54;4.80;99.90
24148;DHT22;12309;51.450;-2.624;2023-02-15T07:33:20;4.80;99.90
24148;DHT22;12309;51.450;-2.624;2023-02-15T07:35:50;4.80;99.90
24148;DHT22;12309;51.450;-2.624;2023-02-15T07:38:17;4.90;99.90
24148;DHT22;12309;51.450;-2.624;2023-02-15T07:40:43;4.80;99.90
24148;DHT22;12309;51.450;-2.624;2023-02-15T07:43:09;4.90;99.90
24148;DHT22;12309;51.450;-2.624;2023-02-15T07:45:34;5.00;99.90
24148;DHT22;12309;51.450;-2.624;2023-02-15T07:48:01;5.20;99.90
24148;DHT22;12309;51.450;-2.624;2023-02-15T07:50:27;5.30;99.90
24148;DHT22;12309;51.450;-2.624;2023-02-15T07:52:53;5.50;99.90
24148;DHT22;12309;51.450;-2.624;2023-02-15T07:55:18;5.50;99.90
24148;DHT22;12309;51.450;-2.624;2023-02-15T07:57:45;5.30;99.90
24148;DHT22;12309;51.450;-2.624;2023-02-15T08:00:13;5.40;99.90
24148;DHT22;12309;51.450;-2.624;2023-02-15T08:02:39;5.60;99.90
24148;DHT22;12309;51.450;-2.624;2023-02-15T08:05:06;5.70;99.90
24148;DHT22;12309;51.450;-2.624;2023-02-15T08:07:32;5.70;99.90
24148;DHT22;12309;51.450;-2.624;2023-02-15T08:09:57;5.90;99.90
24148;DHT22;12309;51.450;-2.624;2023-02-15T08:12:26;5.60;99.90
24148;DHT22;12309;51.450;-2.624;2023-02-15T08:14:52;5.90;99.90
24148;DHT22;12309;51.450;-2.624;2023-02-15T08:17:17;6.50;99.90
24148;DHT22;12309;51.450;-2.624;2023-02-15T08:19:43;6.10;99.90
24148;DHT22;12309;51.450;-2.624;2023-02-15T08:22:12;6.20;99.90
24148;DHT22;12309;51.450;-2.624;2023-02-15T08:24:38;6.40;99.90
24148;DHT22;12309;51.450;-2.624;2023-02-15T08:27:05;7.30;99.90
24148;DHT22;12309;51.450;-2.624;2023-02-15T08:29:31;7.30;99.90
24148;DHT22;12309;51.450;-2.624;2023-02-15T08:32:04;8.10;99.90
24148;DHT22;12309;51.450;-2.624;2023-02-15T08:34:32;9.00;99.90
24148;DHT22;12309;51.450;-2.624;2023-02-15T08:36:58;9.80;99.90
24148;DHT22;12309;51.450;-2.624;2023-02-15T08:39:23;10.30;99.90
24148;DHT22;12309;51.450;-2.624;2023-02-15T08:41:49;10.10;99.90
24148;DHT22;12309;51.450;-2.624;2023-02-15T08:44:19;9.60;99.90
24148;DHT22;12309;51.450;-2.624;2023-02-15T08:46:46;9.50;99.90
24148;DHT22;12309;51.450;-2.624;2023-02-15T08:49:17;9.70;99.90
24148;DHT22;12309;51.450;-2.624;2023-02-15T08:51:43;10.30;99.90
24148;DHT22;12309;51.450;-2.624;2023-02-15T08:54:11;11.10;99.90
24148;DHT22;12309;51.450;-2.624;2023-02-15T08:56:39;11.00;99.90
24148;DHT22;12309;51.450;-2.624;2023-02-15T08:59:06;11.70;99.90
24148;DHT22;12309;51.450;-2.624;2023-02-15T09:01:33;11.60;99.90
24148;DHT22;12309;51.450;-2.624;2023-02-15T09:04:01;11.80;99.90
24148;DHT22;12309;51.450;-2.624;2023-02-15T09:06:28;12.00;99.90
24148;DHT22;12309;51.450;-2.624;2023-02-15T09:08:55;12.10;99.90
24148;DHT22;12309;51.450;-2.624;2023-02-15T09:11:26;11.60;99.90
24148;DHT22;12309;51.450;-2.624;2023-02-15T09:14:00;11.70;99.90
24148;DHT22;12309;51.450;-2.624;2023-02-15T09:16:28;12.10;99.90
24148;DHT22;12309;51.450;-2.624;2023-02-15T09:18:54;12.30;99.90
24148;DHT22;12309;51.450;-2.624;2023-02-15T09:21:22;13.40;99.90
24148;DHT22;12309;51.450;-2.624;2023-02-15T09:23:50;12.60;99.90
24148;DHT22;12309;51.450;-2.624;2023-02-15T09:26:18;13.40;99.90
24148;DHT22;12309;51.450;-2.624;2023-02-15T09:28:45;13.80;99.90
24148;DHT22;12309;51.450;-2.624;2023-02-15T09:33:39;15.10;99.90
24148;DHT22;12309;51.450;-2.624;2023-02-15T09:36:13;15.70;99.90
24148;DHT22;12309;51.450;-2.624;2023-02-15T09:38:39;15.70;99.90
24148;DHT22;12309;51.450;-2.624;2023-02-15T09:48:50;13.80;99.90
24148;DHT22;12309;51.450;-2.624;2023-02-15T09:56:52;13.60;99.90
24148;DHT22;12309;51.450;-2.624;2023-02-15T10:02:35;13.70;99.90
24148;DHT22;12309;51.450;-2.624;2023-02-15T10:08:06;13.00;99.90
24148;DHT22;12309;51.450;-2.624;2023-02-15T10:21:19;13.60;99.90
24148;DHT22;12309;51.450;-2.624;2023-02-15T10:26:47;13.60;99.90
24148;DHT22;12309;51.450;-2.624;2023-02-15T10:34:50;13.60;99.90
24148;DHT22;12309;51.450;-2.624;2023-02-15T10:40:22;13.10;99.90
24148;DHT22;12309;51.450;-2.624;2023-02-15T10:45:56;14.00;99.90
24148;DHT22;12309;51.450;-2.624;2023-02-15T10:51:06;14.90;99.90
24148;DHT22;12309;51.450;-2.624;2023-02-15T11:07:54;16.20;99.90
24148;DHT22;12309;51.450;-2.624;2023-02-15T11:10:50;15.40;99.90
24148;DHT22;12309;51.450;-2.624;2023-02-15T11:13:19;16.30;99.90
24148;DHT22;12309;51.450;-2.624;2023-02-15T11:23:43;18.20;99.90
24148;DHT22;12309;51.450;-2.624;2023-02-15T11:26:36;18.30;99.90
24148;DHT22;12309;51.450;-2.624;2023-02-15T11:31:53;19.50;99.90
24148;DHT22;12309;51.450;-2.624;2023-02-15T11:34:41;20.00;99.90
24148;DHT22;12309;51.450;-2.624;2023-02-15T11:37:17;20.50;99.90
24148;DHT22;12309;51.450;-2.624;2023-02-15T11:39:44;20.70;99.90
24148;DHT22;12309;51.450;-2.624;2023-02-15T11:42:14;20.30;99.90
24148;DHT22;12309;51.450;-2.624;2023-02-15T11:45:14;21.20;99.90
24148;DHT22;12309;51.450;-2.624;2023-02-15T11:47:43;21.30;99.90
24148;DHT22;12309;51.450;-2.624;2023-02-15T11:50:18;22.70;99.90
24148;DHT22;12309;51.450;-2.624;2023-02-15T11:52:48;23.00;99.90
24148;DHT22;12309;51.450;-2.624;2023-02-15T11:55:19;22.30;99.90
24148;DHT22;12309;51.450;-2.624;2023-02-15T12:00:36;22.20;99.90
24148;DHT22;12309;51.450;-2.624;2023-02-15T12:06:00;21.70;99.90
24148;DHT22;12309;51.450;-2.624;2023-02-15T12:08:37;21.90;99.90
24148;DHT22;12309;51.450;-2.624;2023-02-15T12:11:14;21.80;99.90
24148;DHT22;12309;51.450;-2.624;2023-02-15T12:13:55;23.10;99.90
24148;DHT22;12309;51.450;-2.624;2023-02-15T12:16:22;21.60;99.90
24148;DHT22;12309;51.450;-2.624;2023-02-15T12:18:48;20.50;99.90
24148;DHT22;12309;51.450;-2.624;2023-02-15T12:21:14;19.50;99.90
24148;DHT22;12309;51.450;-2.624;2023-02-15T12:23:47;18.90;99.90
24148;DHT22;12309;51.450;-2.624;2023-02-15T12:26:14;18.90;99.90
24148;DHT22;12309;51.450;-2.624;2023-02-15T12:28:44;16.70;99.90
24148;DHT22;12309;51.450;-2.624;2023-02-15T12:31:41;16.20;99.90
24148;DHT22;12309;51.450;-2.624;2023-02-15T12:34:22;16.30;99.90
24148;DHT22;12309;51.450;-2.624;2023-02-15T12:36:53;16.20;99.90
24148;DHT22;12309;51.450;-2.624;2023-02-15T12:39:25;16.20;99.90
24148;DHT22;12309;51.450;-2.624;2023-02-15T12:44:35;15.70;99.90
24148;DHT22;12309;51.450;-2.624;2023-02-15T12:47:18;15.50;99.90
24148;DHT22;12309;51.450;-2.624;2023-02-15T12:49:44;15.50;99.90
24148;DHT22;12309;51.450;-2.624;2023-02-15T12:54:46;15.20;99.90
24148;DHT22;12309;51.450;-2.624;2023-02-15T12:57:32;15.00;99.90
24148;DHT22;12309;51.450;-2.624;2023-02-15T13:07:53;14.60;99.90
24148;DHT22;12309;51.450;-2.624;2023-02-15T13:10:28;14.70;99.90
24148;DHT22;12309;51.450;-2.624;2023-02-15T13:12:55;15.60;99.90
24148;DHT22;12309;51.450;-2.624;2023-02-15T13:15:45;15.00;99.90
24148;DHT22;12309;51.450;-2.624;2023-02-15T13:18:16;14.80;99.90
24148;DHT22;12309;51.450;-2.624;2023-02-15T13:20:43;14.60;99.90
24148;DHT22;12309;51.450;-2.624;2023-02-15T13:23:42;14.50;99.90
24148;DHT22;12309;51.450;-2.624;2023-02-15T13:26:14;14.40;99.90
24148;DHT22;12309;51.450;-2.624;2023-02-15T13:28:49;13.90;99.90
24148;DHT22;12309;51.450;-2.624;2023-02-15T13:31:24;14.10;99.90
24148;DHT22;12309;51.450;-2.624;2023-02-15T13:33:59;14.00;99.90
24148;DHT22;12309;51.450;-2.624;2023-02-15T13:52:27;13.60;99.90
24148;DHT22;12309;51.450;-2.624;2023-02-15T14:16:26;13.70;99.90
24148;DHT22;12309;51.450;-2.624;2023-02-15T14:24:37;13.50;99.90
24148;DHT22;12309;51.450;-2.624;2023-02-15T14:32:24;13.30;99.90
24148;DHT22;12309;51.450;-2.624;2023-02-15T14:34:56;13.30;99.90
24148;DHT22;12309;51.450;-2.624;2023-02-15T14:37:49;13.10;99.90
24148;DHT22;12309;51.450;-2.624;2023-02-15T14:40:38;12.90;99.90
24148;DHT22;12309;51.450;-2.624;2023-02-15T14:46:22;12.20;99.90
24148;DHT22;12309;51.450;-2.624;2023-02-15T14:49:04;12.00;99.90
24148;DHT22;12309;51.450;-2.624;2023-02-15T14:54:10;11.70;99.90
24148;DHT22;12309;51.450;-2.624;2023-02-15T14:56:36;11.60;99.90
24148;DHT22;12309;51.450;-2.624;2023-02-15T14:59:16;11.50;99.90
24148;DHT22;12309;51.450;-2.624;2023-02-15T15:07:19;11.30;99.90
24148;DHT22;12309;51.450;-2.624;2023-02-15T15:09:57;11.30;99.90
24148;DHT22;12309;51.450;-2.624;2023-02-15T15:19:58;11.10;99.90
24148;DHT22;12309;51.450;-2.624;2023-02-15T15:22:26;11.00;99.90
24148;DHT22;12309;51.450;-2.624;2023-02-15T15:25:39;10.70;99.90
24148;DHT22;12309;51.450;-2.624;2023-02-15T15:27:57;10.90;99.90
24148;DHT22;12309;51.450;-2.624;2023-02-15T15:35:55;10.70;99.90
24148;DHT22;12309;51.450;-2.624;2023-02-15T15:38:49;10.60;99.90
24148;DHT22;12309;51.450;-2.624;2023-02-15T15:49:29;10.40;99.90
24148;DHT22;12309;51.450;-2.624;2023-02-15T15:52:00;10.30;99.90
24148;DHT22;12309;51.450;-2.624;2023-02-15T15:54:26;10.20;99.90
24148;DHT22;12309;51.450;-2.624;2023-02-15T15:56:55;10.20;99.90
24148;DHT22;12309;51.450;-2.624;2023-02-15T15:59:27;10.30;99.90
24148;DHT22;12309;51.450;-2.624;2023-02-15T16:01:53;10.20;99.90
24148;DHT22;12309;51.450;-2.624;2023-02-15T16:04:25;10.20;99.90
24148;DHT22;12309;51.450;-2.624;2023-02-15T16:06:51;10.20;99.90
24148;DHT22;12309;51.450;-2.624;2023-02-15T16:09:25;10.20;99.90
24148;DHT22;12309;51.450;-2.624;2023-02-15T16:11:56;10.20;99.90
24148;DHT22;12309;51.450;-2.624;2023-02-15T16:14:38;10.10;99.90
24148;DHT22;12309;51.450;-2.624;2023-02-15T16:17:17;10.10;99.90
24148;DHT22;12309;51.450;-2.624;2023-02-15T16:19:44;10.10;99.90
24148;DHT22;12309;51.450;-2.624;2023-02-15T16:22:18;10.00;99.90
24148;DHT22;12309;51.450;-2.624;2023-02-15T16:27:42;10.00;99.90
24148;DHT22;12309;51.450;-2.624;2023-02-15T16:33:06;10.00;99.90
24148;DHT22;12309;51.450;-2.624;2023-02-15T16:35:32;10.00;99.90
24148;DHT22;12309;51.450;-2.624;2023-02-15T16:37:58;9.90;99.90
24148;DHT22;12309;51.450;-2.624;2023-02-15T16:43:13;9.90;99.90
24148;DHT22;12309;51.450;-2.624;2023-02-15T16:45:40;10.00;99.90
24148;DHT22;12309;51.450;-2.624;2023-02-15T16:48:13;10.00;99.90
24148;DHT22;12309;51.450;-2.624;2023-02-15T16:53:12;10.20;99.90
24148;DHT22;12309;51.450;-2.624;2023-02-15T16:55:41;9.80;99.90
24148;DHT22;12309;51.450;-2.624;2023-02-15T16:58:11;9.80;99.90
24148;DHT22;12309;51.450;-2.624;2023-02-15T17:00:39;10.20;99.90
24148;DHT22;12309;51.450;-2.624;2023-02-15T17:05:45;9.80;99.90
24148;DHT22;12309;51.450;-2.624;2023-02-15T17:08:33;9.70;99.90
24148;DHT22;12309;51.450;-2.624;2023-02-15T17:13:26;9.60;99.90
24148;DHT22;12309;51.450;-2.624;2023-02-15T17:18:24;9.50;99.90
24148;DHT22;12309;51.450;-2.624;2023-02-15T17:20:52;9.50;99.90
24148;DHT22;12309;51.450;-2.624;2023-02-15T17:26:13;9.30;99.90
24148;DHT22;12309;51.450;-2.624;2023-02-15T17:28:47;9.40;99.90
24148;DHT22;12309;51.450;-2.624;2023-02-15T17:31:16;9.30;99.90
24148;DHT22;12309;51.450;-2.624;2023-02-15T17:33:42;9.30;99.90
24148;DHT22;12309;51.450;-2.624;2023-02-15T17:36:37;9.20;99.90
24148;DHT22;12309;51.450;-2.624;2023-02-15T17:39:19;9.20;99.90
24148;DHT22;12309;51.450;-2.624;2023-02-15T17:41:45;9.10;99.90
24148;DHT22;12309;51.450;-2.624;2023-02-15T17:44:12;9.20;99.90
24148;DHT22;12309;51.450;-2.624;2023-02-15T17:46:40;9.00;99.90
24148;DHT22;12309;51.450;-2.624;2023-02-15T17:51:33;8.90;99.90
24148;DHT22;12309;51.450;-2.624;2023-02-15T17:54:01;8.90;99.90
24148;DHT22;12309;51.450;-2.624;2023-02-15T17:56:56;8.90;99.90
24148;DHT22;12309;51.450;-2.624;2023-02-15T17:59:27;8.90;99.90
24148;DHT22;12309;51.450;-2.624;2023-02-15T18:01:53;8.90;99.90
24148;DHT22;12309;51.450;-2.624;2023-02-15T18:04:37;8.90;99.90
24148;DHT22;12309;51.450;-2.624;2023-02-15T18:07:21;8.80;99.90
24148;DHT22;12309;51.450;-2.624;2023-02-15T18:10:16;8.80;99.90
24148;DHT22;12309;51.450;-2.624;2023-02-15T18:15:26;8.70;99.90
24148;DHT22;12309;51.450;-2.624;2023-02-15T18:17:52;8.60;99.90
24148;DHT22;12309;51.450;-2.624;2023-02-15T18:20:21;8.80;99.90
24148;DHT22;12309;51.450;-2.624;2023-02-15T18:22:49;8.30;99.90
24148;DHT22;12309;51.450;-2.624;2023-02-15T18:25:18;8.60;99.90
24148;DHT22;12309;51.450;-2.624;2023-02-15T18:27:44;8.60;99.90
24148;DHT22;12309;51.450;-2.624;2023-02-15T18:30:17;8.50;99.90
24148;DHT22;12309;51.450;-2.624;2023-02-15T18:32:44;8.50;99.90
24148;DHT22;12309;51.450;-2.624;2023-02-15T18:35:20;8.50;99.90
24148;DHT22;12309;51.450;-2.624;2023-02-15T18:37:47;8.50;99.90
24148;DHT22;12309;51.450;-2.624;2023-02-15T18:40:20;8.50;99.90
24148;DHT22;12309;51.450;-2.624;2023-02-15T18:42:46;8.50;99.90
24148;DHT22;12309;51.450;-2.624;2023-02-15T18:47:39;8.40;99.90
24148;DHT22;12309;51.450;-2.624;2023-02-15T18:50:05;8.50;99.90
24148;DHT22;12309;51.450;-2.624;2023-02-15T18:52:33;8.40;99.90
24148;DHT22;12309;51.450;-2.624;2023-02-15T18:55:03;8.30;99.90
24148;DHT22;12309;51.450;-2.624;2023-02-15T18:57:32;8.60;99.90
24148;DHT22;12309;51.450;-2.624;2023-02-15T18:59:58;8.80;99.90
24148;DHT22;12309;51.450;-2.624;2023-02-15T19:02:24;8.30;99.90
24148;DHT22;12309;51.450;-2.624;2023-02-15T19:04:49;8.30;99.90
24148;DHT22;12309;51.450;-2.624;2023-02-15T19:07:25;8.20;99.90
24148;DHT22;12309;51.450;-2.624;2023-02-15T19:09:55;8.10;99.90
24148;DHT22;12309;51.450;-2.624;2023-02-15T19:12:21;8.10;99.90
24148;DHT22;12309;51.450;-2.624;2023-02-15T19:14:47;8.00;99.90
24148;DHT22;12309;51.450;-2.624;2023-02-15T19:17:18;7.90;99.90
24148;DHT22;12309;51.450;-2.624;2023-02-15T19:19:45;7.90;99.90
24148;DHT22;12309;51.450;-2.624;2023-02-15T19:22:19;7.90;99.90
24148;DHT22;12309;51.450;-2.624;2023-02-15T19:24:46;7.90;99.90
24148;DHT22;12309;51.450;-2.624;2023-02-15T19:27:32;7.90;99.90
24148;DHT22;12309;51.450;-2.624;2023-02-15T19:30:04;7.90;99.90
24148;DHT22;12309;51.450;-2.624;2023-02-15T19:32:32;7.80;99.90
24148;DHT22;12309;51.450;-2.624;2023-02-15T19:34:58;7.60;99.90
24148;DHT22;12309;51.450;-2.624;2023-02-15T19:37:47;6.60;99.90
24148;DHT22;12309;51.450;-2.624;2023-02-15T19:40:20;7.80;99.90